sensor_id;sensor_type;location;lat;lon;timestamp;P1;durP1;ratioP1;P2;durP2;ratioP2
51048;SDS011;37084;55.228;36.450;2023-03-31T00:01:18;5.43;;;3.50;;
51048;SDS011;37084;55.228;36.450;2023-03-31T00:04:19;5.30;;;3.65;;
51048;SDS011;37084;55.228;36.450;2023-03-31T00:07:23;5.97;;;3.40;;
51048;SDS011;37084;55.228;36.450;2023-03-31T00:10:26;5.05;;;3.30;;
51048;SDS011;37084;55.228;36.450;2023-03-31T00:13:28;4.60;;;2.58;;
51048;SDS011;37084;55.228;36.450;2023-03-31T00:16:31;3.30;;;2.80;;
51048;SDS011;37084;55.228;36.450;2023-03-31T00:19:34;3.58;;;3.28;;
51048;SDS011;37084;55.228;36.450;2023-03-31T00:22:36;5.38;;;2.30;;
51048;SDS011;37084;55.228;36.450;2023-03-31T00:25:38;5.82;;;3.60;;
51048;SDS011;37084;55.228;36.450;2023-03-31T00:28:41;6.38;;;4.20;;
51048;SDS011;37084;55.228;36.450;2023-03-31T00:31:42;7.80;;;4.43;;
51048;SDS011;37084;55.228;36.450;2023-03-31T00:34:44;5.50;;;3.85;;
51048;SDS011;37084;55.228;36.450;2023-03-31T00:37:45;6.93;;;4.03;;
51048;SDS011;37084;55.228;36.450;2023-03-31T00:40:47;5.82;;;3.78;;
51048;SDS011;37084;55.228;36.450;2023-03-31T00:47:12;7.10;;;3.75;;
51048;SDS011;37084;55.228;36.450;2023-03-31T00:50:26;5.65;;;2.85;;
51048;SDS011;37084;55.228;36.450;2023-03-31T00:53:31;5.75;;;3.90;;
51048;SDS011;37084;55.228;36.450;2023-03-31T00:56:36;5.45;;;3.53;;
51048;SDS011;37084;55.228;36.450;2023-03-31T00:59:47;5.68;;;4.18;;
51048;SDS011;37084;55.228;36.450;2023-03-31T01:02:53;6.03;;;2.90;;
51048;SDS011;37084;55.228;36.450;2023-03-31T01:06:02;6.05;;;3.90;;
51048;SDS011;37084;55.228;36.450;2023-03-31T01:09:08;6.20;;;4.40;;
51048;SDS011;37084;55.228;36.450;2023-03-31T01:12:10;7.93;;;4.00;;
51048;SDS011;37084;55.228;36.450;2023-03-31T01:15:11;6.00;;;3.90;;
51048;SDS011;37084;55.228;36.450;2023-03-31T01:18:13;5.90;;;4.50;;
51048;SDS011;37084;55.228;36.450;2023-03-31T01:27:49;7.72;;;4.60;;
51048;SDS011;37084;55.228;36.450;2023-03-31T01:34:35;6.15;;;2.78;;
51048;SDS011;37084;55.228;36.450;2023-03-31T01:41:45;6.47;;;2.88;;
51048;SDS011;37084;55.228;36.450;2023-03-31T01:44:57;6.97;;;4.95;;
51048;SDS011;37084;55.228;36.450;2023-03-31T01:48:14;8.20;;;4.15;;
51048;SDS011;37084;55.228;36.450;2023-03-31T01:51:33;5.55;;;2.00;;
51048;SDS011;37084;55.228;36.450;2023-03-31T01:54:44;8.20;;;4.95;;
51048;SDS011;37084;55.228;36.450;2023-03-31T01:58:10;7.30;;;3.83;;
51048;SDS011;37084;55.228;36.450;2023-03-31T02:01:24;7.43;;;4.15;;
51048;SDS011;37084;55.228;36.450;2023-03-31T02:04:37;6.32;;;3.88;;
51048;SDS011;37084;55.228;36.450;2023-03-31T02:07:43;6.03;;;3.00;;
51048;SDS011;37084;55.228;36.450;2023-03-31T02:10:47;5.75;;;2.97;;
51048;SDS011;37084;55.228;36.450;2023-03-31T02:13:50;6.15;;;4.70;;
51048;SDS011;37084;55.228;36.450;2023-03-31T02:16:54;7.38;;;5.15;;
51048;SDS011;37084;55.228;36.450;2023-03-31T02:20:02;6.60;;;4.38;;
51048;SDS011;37084;55.228;36.450;2023-03-31T02:23:09;9.07;;;4.22;;
51048;SDS011;37084;55.228;36.450;2023-03-31T02:26:14;5.40;;;4.00;;
51048;SDS011;37084;55.228;36.450;2023-03-31T02:29:17;5.57;;;3.25;;
51048;SDS011;37084;55.228;36.450;2023-03-31T02:35:32;7.95;;;4.97;;
51048;SDS011;37084;55.228;36.450;2023-03-31T02:38:36;6.15;;;4.60;;
51048;SDS011;37084;55.228;36.450;2023-03-31T02:41:45;7.20;;;4.68;;
51048;SDS011;37084;55.228;36.450;2023-03-31T02:44:47;6.47;;;3.00;;
51048;SDS011;37084;55.228;36.450;2023-03-31T02:47:49;6.30;;;3.13;;
51048;SDS011;37084;55.228;36.450;2023-03-31T03:11:24;5.80;;;3.97;;
51048;SDS011;37084;55.228;36.450;2023-03-31T03:17:43;6.45;;;4.63;;
51048;SDS011;37084;55.228;36.450;2023-03-31T03:20:45;5.40;;;3.65;;
51048;SDS011;37084;55.228;36.450;2023-03-31T03:23:48;6.97;;;4.97;;
51048;SDS011;37084;55.228;36.450;2023-03-31T03:26:51;7.25;;;4.68;;
51048;SDS011;37084;55.228;36.450;2023-03-31T03:29:52;7.78;;;3.85;;
51048;SDS011;37084;55.228;36.450;2023-03-31T03:32:53;6.95;;;3.80;;
51048;SDS011;37084;55.228;36.450;2023-03-31T03:35:55;7.30;;;4.50;;
51048;SDS011;37084;55.228;36.450;2023-03-31T03:38:56;8.45;;;4.75;;
51048;SDS011;37084;55.228;36.450;2023-03-31T03:41:59;7.25;;;4.75;;
51048;SDS011;37084;55.228;36.450;2023-03-31T03:45:01;7.22;;;2.92;;
51048;SDS011;37084;55.228;36.450;2023-03-31T03:48:04;7.57;;;4.30;;
51048;SDS011;37084;55.228;36.450;2023-03-31T03:51:05;6.38;;;2.85;;
51048;SDS011;37084;55.228;36.450;2023-03-31T03:54:06;5.25;;;3.50;;
51048;SDS011;37084;55.228;36.450;2023-03-31T03:57:08;8.40;;;4.93;;
51048;SDS011;37084;55.228;36.450;2023-03-31T04:00:09;7.93;;;4.93;;
51048;SDS011;37084;55.228;36.450;2023-03-31T04:03:12;7.85;;;5.50;;
51048;SDS011;37084;55.228;36.450;2023-03-31T04:06:14;8.73;;;5.60;;
51048;SDS011;37084;55.228;36.450;2023-03-31T04:09:15;7.75;;;5.72;;
51048;SDS011;37084;55.228;36.450;2023-03-31T04:12:16;6.65;;;4.15;;
51048;SDS011;37084;55.228;36.450;2023-03-31T04:15:17;9.80;;;5.20;;
51048;SDS011;37084;55.228;36.450;2023-03-31T04:18:18;9.10;;;5.38;;
51048;SDS011;37084;55.228;36.450;2023-03-31T04:21:24;8.85;;;5.25;;
51048;SDS011;37084;55.228;36.450;2023-03-31T04:24:25;8.18;;;3.83;;
51048;SDS011;37084;55.228;36.450;2023-03-31T04:27:30;6.38;;;4.63;;
51048;SDS011;37084;55.228;36.450;2023-03-31T04:30:33;8.77;;;5.43;;
51048;SDS011;37084;55.228;36.450;2023-03-31T04:33:39;7.32;;;5.20;;
51048;SDS011;37084;55.228;36.450;2023-03-31T04:36:40;8.13;;;3.58;;
51048;SDS011;37084;55.228;36.450;2023-03-31T04:39:48;6.30;;;4.50;;
51048;SDS011;37084;55.228;36.450;2023-03-31T04:42:50;6.97;;;4.78;;
51048;SDS011;37084;55.228;36.450;2023-03-31T04:45:51;7.22;;;4.95;;
51048;SDS011;37084;55.228;36.450;2023-03-31T04:48:53;6.70;;;4.78;;
51048;SDS011;37084;55.228;36.450;2023-03-31T04:51:54;5.40;;;3.10;;
51048;SDS011;37084;55.228;36.450;2023-03-31T04:54:55;6.63;;;5.32;;
51048;SDS011;37084;55.228;36.450;2023-03-31T04:57:56;6.15;;;4.55;;
51048;SDS011;37084;55.228;36.450;2023-03-31T05:00:57;6.85;;;4.07;;
51048;SDS011;37084;55.228;36.450;2023-03-31T05:03:59;4.55;;;3.70;;
51048;SDS011;37084;55.228;36.450;2023-03-31T05:07:00;5.72;;;5.00;;
51048;SDS011;37084;55.228;36.450;2023-03-31T05:10:01;6.25;;;4.20;;
51048;SDS011;37084;55.228;36.450;2023-03-31T05:13:03;5.93;;;4.13;;
51048;SDS011;37084;55.228;36.450;2023-03-31T05:16:08;3.88;;;3.15;;
51048;SDS011;37084;55.228;36.450;2023-03-31T05:19:11;4.35;;;3.75;;
51048;SDS011;37084;55.228;36.450;2023-03-31T05:22:13;4.50;;;3.55;;
51048;SDS011;37084;55.228;36.450;2023-03-31T05:25:14;4.57;;;3.55;;
51048;SDS011;37084;55.228;36.450;2023-03-31T05:28:18;5.57;;;3.15;;
51048;SDS011;37084;55.228;36.450;2023-03-31T05:31:19;4.50;;;3.60;;
51048;SDS011;37084;55.228;36.450;2023-03-31T05:34:20;3.72;;;3.35;;
51048;SDS011;37084;55.228;36.450;2023-03-31T05:37:22;4.97;;;3.58;;
51048;SDS011;37084;55.228;36.450;2023-03-31T05:40:24;4.80;;;3.30;;
51048;SDS011;37084;55.228;36.450;2023-03-31T05:43:25;4.28;;;3.42;;
51048;SDS011;37084;55.228;36.450;2023-03-31T05:46:27;3.95;;;3.60;;
51048;SDS011;37084;55.228;36.450;2023-03-31T05:49:28;5.22;;;4.72;;
51048;SDS011;37084;55.228;36.450;2023-03-31T05:52:29;4.68;;;3.40;;
51048;SDS011;37084;55.228;36.450;2023-03-31T05:55:34;4.68;;;3.42;;
51048;SDS011;37084;55.228;36.450;2023-03-31T05:58:36;3.78;;;3.13;;
51048;SDS011;37084;55.228;36.450;2023-03-31T06:01:37;1.95;;;1.48;;
51048;SDS011;37084;55.228;36.450;2023-03-31T06:04:38;4.82;;;3.25;;
51048;SDS011;37084;55.228;36.450;2023-03-31T06:07:39;4.03;;;3.50;;
51048;SDS011;37084;55.228;36.450;2023-03-31T06:10:40;4.90;;;3.40;;
51048;SDS011;37084;55.228;36.450;2023-03-31T06:13:42;3.97;;;3.47;;
51048;SDS011;37084;55.228;36.450;2023-03-31T06:16:43;4.82;;;3.80;;
51048;SDS011;37084;55.228;36.450;2023-03-31T06:19:47;4.18;;;3.60;;
51048;SDS011;37084;55.228;36.450;2023-03-31T06:22:48;3.47;;;3.17;;
51048;SDS011;37084;55.228;36.450;2023-03-31T06:25:49;4.10;;;3.70;;
51048;SDS011;37084;55.228;36.450;2023-03-31T06:28:50;4.20;;;3.53;;
51048;SDS011;37084;55.228;36.450;2023-03-31T06:31:51;4.57;;;4.07;;
51048;SDS011;37084;55.228;36.450;2023-03-31T06:34:52;4.22;;;3.42;;
51048;SDS011;37084;55.228;36.450;2023-03-31T06:37:53;3.85;;;3.20;;
51048;SDS011;37084;55.228;36.450;2023-03-31T06:40:54;5.10;;;3.55;;
51048;SDS011;37084;55.228;36.450;2023-03-31T06:43:56;4.50;;;3.97;;
51048;SDS011;37084;55.228;36.450;2023-03-31T06:46:58;4.05;;;3.63;;
51048;SDS011;37084;55.228;36.450;2023-03-31T06:49:59;3.60;;;3.15;;
51048;SDS011;37084;55.228;36.450;2023-03-31T06:53:00;3.22;;;2.92;;
51048;SDS011;37084;55.228;36.450;2023-03-31T06:56:02;3.97;;;3.58;;
51048;SDS011;37084;55.228;36.450;2023-03-31T06:59:03;3.92;;;3.53;;
51048;SDS011;37084;55.228;36.450;2023-03-31T07:02:05;3.42;;;2.65;;
51048;SDS011;37084;55.228;36.450;2023-03-31T07:05:06;3.08;;;2.30;;
51048;SDS011;37084;55.228;36.450;2023-03-31T07:08:07;4.45;;;3.92;;
51048;SDS011;37084;55.228;36.450;2023-03-31T07:11:08;3.20;;;2.90;;
51048;SDS011;37084;55.228;36.450;2023-03-31T07:14:10;2.58;;;2.13;;
51048;SDS011;37084;55.228;36.450;2023-03-31T07:17:11;3.67;;;3.38;;
51048;SDS011;37084;55.228;36.450;2023-03-31T07:20:13;3.67;;;3.35;;
51048;SDS011;37084;55.228;36.450;2023-03-31T07:23:16;2.92;;;2.65;;
51048;SDS011;37084;55.228;36.450;2023-03-31T07:26:18;3.65;;;3.25;;
51048;SDS011;37084;55.228;36.450;2023-03-31T07:29:20;4.20;;;3.90;;
51048;SDS011;37084;55.228;36.450;2023-03-31T07:32:21;4.93;;;3.78;;
51048;SDS011;37084;55.228;36.450;2023-03-31T07:35:23;3.65;;;3.15;;
51048;SDS011;37084;55.228;36.450;2023-03-31T07:38:24;3.53;;;3.20;;
51048;SDS011;37084;55.228;36.450;2023-03-31T07:41:25;4.30;;;3.53;;
51048;SDS011;37084;55.228;36.450;2023-03-31T07:44:26;3.67;;;2.95;;
51048;SDS011;37084;55.228;36.450;2023-03-31T07:47:27;3.00;;;2.45;;
51048;SDS011;37084;55.228;36.450;2023-03-31T07:50:28;4.00;;;3.25;;
51048;SDS011;37084;55.228;36.450;2023-03-31T07:53:31;3.55;;;3.10;;
51048;SDS011;37084;55.228;36.450;2023-03-31T07:56:32;3.72;;;3.30;;
51048;SDS011;37084;55.228;36.450;2023-03-31T07:59:34;4.18;;;3.70;;
51048;SDS011;37084;55.228;36.450;2023-03-31T08:02:35;4.45;;;4.07;;
51048;SDS011;37084;55.228;36.450;2023-03-31T08:05:36;3.45;;;2.97;;
51048;SDS011;37084;55.228;36.450;2023-03-31T08:08:37;3.25;;;2.95;;
51048;SDS011;37084;55.228;36.450;2023-03-31T08:11:42;3.08;;;2.85;;
51048;SDS011;37084;55.228;36.450;2023-03-31T08:14:43;3.05;;;2.80;;
51048;SDS011;37084;55.228;36.450;2023-03-31T08:17:44;3.42;;;3.13;;
51048;SDS011;37084;55.228;36.450;2023-03-31T08:20:46;3.17;;;2.97;;
51048;SDS011;37084;55.228;36.450;2023-03-31T08:23:51;2.35;;;1.92;;
51048;SDS011;37084;55.228;36.450;2023-03-31T08:26:53;3.13;;;2.85;;
51048;SDS011;37084;55.228;36.450;2023-03-31T08:29:54;3.13;;;2.88;;
51048;SDS011;37084;55.228;36.450;2023-03-31T08:32:55;2.97;;;2.75;;
51048;SDS011;37084;55.228;36.450;2023-03-31T08:36:00;2.95;;;2.75;;
51048;SDS011;37084;55.228;36.450;2023-03-31T08:39:03;3.90;;;2.88;;
51048;SDS011;37084;55.228;36.450;2023-03-31T08:45:29;3.28;;;2.92;;
51048;SDS011;37084;55.228;36.450;2023-03-31T08:48:37;5.18;;;3.08;;
51048;SDS011;37084;55.228;36.450;2023-03-31T08:51:46;3.22;;;2.92;;
51048;SDS011;37084;55.228;36.450;2023-03-31T08:54:51;3.58;;;2.60;;
51048;SDS011;37084;55.228;36.450;2023-03-31T08:58:00;2.97;;;2.45;;
51048;SDS011;37084;55.228;36.450;2023-03-31T09:07:34;3.83;;;2.20;;
51048;SDS011;37084;55.228;36.450;2023-03-31T09:17:39;3.08;;;2.88;;
51048;SDS011;37084;55.228;36.450;2023-03-31T09:20:27;3.83;;;3.47;;
51048;SDS011;37084;55.228;36.450;2023-03-31T09:23:32;2.97;;;2.72;;
51048;SDS011;37084;55.228;36.450;2023-03-31T09:26:42;3.15;;;2.83;;
51048;SDS011;37084;55.228;36.450;2023-03-31T09:30:02;3.53;;;2.83;;
51048;SDS011;37084;55.228;36.450;2023-03-31T09:33:14;3.38;;;2.97;;
51048;SDS011;37084;55.228;36.450;2023-03-31T09:36:23;3.28;;;2.97;;
51048;SDS011;37084;55.228;36.450;2023-03-31T09:39:24;3.13;;;2.83;;
51048;SDS011;37084;55.228;36.450;2023-03-31T09:42:25;3.42;;;3.13;;
51048;SDS011;37084;55.228;36.450;2023-03-31T09:45:26;3.50;;;3.13;;
51048;SDS011;37084;55.228;36.450;2023-03-31T09:48:31;3.65;;;3.22;;
51048;SDS011;37084;55.228;36.450;2023-03-31T09:51:34;2.25;;;1.80;;
51048;SDS011;37084;55.228;36.450;2023-03-31T09:54:42;3.63;;;3.00;;
51048;SDS011;37084;55.228;36.450;2023-03-31T09:57:45;3.35;;;2.67;;
51048;SDS011;37084;55.228;36.450;2023-03-31T10:06:59;2.90;;;2.65;;
51048;SDS011;37084;55.228;36.450;2023-03-31T10:10:01;2.92;;;2.72;;
51048;SDS011;37084;55.228;36.450;2023-03-31T10:13:07;3.08;;;2.30;;
51048;SDS011;37084;55.228;36.450;2023-03-31T10:16:11;3.75;;;2.95;;
51048;SDS011;37084;55.228;36.450;2023-03-31T10:25:31;2.67;;;1.60;;
51048;SDS011;37084;55.228;36.450;2023-03-31T10:28:33;2.78;;;2.40;;
51048;SDS011;37084;55.228;36.450;2023-03-31T10:31:35;2.88;;;2.55;;
51048;SDS011;37084;55.228;36.450;2023-03-31T10:34:37;2.78;;;2.28;;
51048;SDS011;37084;55.228;36.450;2023-03-31T10:37:41;3.80;;;2.67;;
51048;SDS011;37084;55.228;36.450;2023-03-31T10:40:49;2.63;;;2.42;;
51048;SDS011;37084;55.228;36.450;2023-03-31T10:43:52;2.63;;;2.42;;
51048;SDS011;37084;55.228;36.450;2023-03-31T10:46:54;2.28;;;1.52;;
51048;SDS011;37084;55.228;36.450;2023-03-31T10:49:56;3.03;;;2.17;;
51048;SDS011;37084;55.228;36.450;2023-03-31T10:53:13;2.63;;;2.40;;
51048;SDS011;37084;55.228;36.450;2023-03-31T10:56:24;2.80;;;2.60;;
51048;SDS011;37084;55.228;36.450;2023-03-31T11:03:14;3.78;;;2.53;;
51048;SDS011;37084;55.228;36.450;2023-03-31T11:06:43;2.80;;;2.60;;
51048;SDS011;37084;55.228;36.450;2023-03-31T11:09:56;2.90;;;2.40;;
51048;SDS011;37084;55.228;36.450;2023-03-31T11:23:48;2.58;;;2.35;;
51048;SDS011;37084;55.228;36.450;2023-03-31T11:43:28;2.85;;;2.65;;
51048;SDS011;37084;55.228;36.450;2023-03-31T11:49:44;2.90;;;2.60;;
51048;SDS011;37084;55.228;36.450;2023-03-31T11:53:02;2.47;;;2.28;;
51048;SDS011;37084;55.228;36.450;2023-03-31T11:56:06;3.60;;;1.95;;
51048;SDS011;37084;55.228;36.450;2023-03-31T11:59:10;4.88;;;2.97;;
51048;SDS011;37084;55.228;36.450;2023-03-31T12:02:18;2.80;;;2.60;;
51048;SDS011;37084;55.228;36.450;2023-03-31T12:05:49;3.13;;;2.42;;
51048;SDS011;37084;55.228;36.450;2023-03-31T12:09:06;2.55;;;2.25;;
51048;SDS011;37084;55.228;36.450;2023-03-31T12:12:17;3.05;;;1.95;;
51048;SDS011;37084;55.228;36.450;2023-03-31T12:15:29;3.42;;;1.63;;
51048;SDS011;37084;55.228;36.450;2023-03-31T12:18:34;4.53;;;2.78;;
51048;SDS011;37084;55.228;36.450;2023-03-31T12:21:39;2.78;;;2.53;;
51048;SDS011;37084;55.228;36.450;2023-03-31T12:24:44;3.10;;;2.80;;
51048;SDS011;37084;55.228;36.450;2023-03-31T12:27:46;4.55;;;2.92;;
51048;SDS011;37084;55.228;36.450;2023-03-31T12:30:49;2.83;;;2.40;;
51048;SDS011;37084;55.228;36.450;2023-03-31T12:33:53;2.90;;;2.60;;
51048;SDS011;37084;55.228;36.450;2023-03-31T12:40:32;3.33;;;2.70;;
51048;SDS011;37084;55.228;36.450;2023-03-31T12:43:48;2.90;;;2.60;;
51048;SDS011;37084;55.228;36.450;2023-03-31T13:00:14;2.85;;;2.65;;
51048;SDS011;37084;55.228;36.450;2023-03-31T13:09:39;3.30;;;2.35;;
51048;SDS011;37084;55.228;36.450;2023-03-31T13:13:10;2.72;;;2.53;;
51048;SDS011;37084;55.228;36.450;2023-03-31T13:16:17;3.17;;;2.53;;
51048;SDS011;37084;55.228;36.450;2023-03-31T13:19:25;3.83;;;2.60;;
51048;SDS011;37084;55.228;36.450;2023-03-31T13:22:35;3.78;;;2.42;;
51048;SDS011;37084;55.228;36.450;2023-03-31T13:25:44;2.78;;;2.58;;
51048;SDS011;37084;55.228;36.450;2023-03-31T13:28:46;3.20;;;2.70;;
51048;SDS011;37084;55.228;36.450;2023-03-31T13:32:18;2.65;;;2.42;;
51048;SDS011;37084;55.228;36.450;2023-03-31T13:35:22;4.18;;;1.88;;
51048;SDS011;37084;55.228;36.450;2023-03-31T13:41:29;3.63;;;2.17;;
51048;SDS011;37084;55.228;36.450;2023-03-31T13:58:21;3.25;;;1.95;;
51048;SDS011;37084;55.228;36.450;2023-03-31T14:05:11;2.83;;;2.55;;
51048;SDS011;37084;55.228;36.450;2023-03-31T14:11:33;3.03;;;2.50;;
51048;SDS011;37084;55.228;36.450;2023-03-31T14:14:38;3.92;;;2.88;;
51048;SDS011;37084;55.228;36.450;2023-03-31T14:17:40;3.28;;;2.80;;
51048;SDS011;37084;55.228;36.450;2023-03-31T14:24:13;2.97;;;2.67;;
51048;SDS011;37084;55.228;36.450;2023-03-31T14:30:29;4.78;;;3.13;;
51048;SDS011;37084;55.228;36.450;2023-03-31T14:37:20;4.55;;;2.88;;
51048;SDS011;37084;55.228;36.450;2023-03-31T14:40:22;4.10;;;2.90;;
51048;SDS011;37084;55.228;36.450;2023-03-31T14:43:24;5.55;;;3.00;;
51048;SDS011;37084;55.228;36.450;2023-03-31T14:46:28;4.35;;;2.10;;
51048;SDS011;37084;55.228;36.450;2023-03-31T14:49:36;5.05;;;3.30;;
51048;SDS011;37084;55.228;36.450;2023-03-31T14:52:38;4.18;;;3.33;;
51048;SDS011;37084;55.228;36.450;2023-03-31T14:55:40;4.75;;;3.17;;
51048;SDS011;37084;55.228;36.450;2023-03-31T14:58:46;5.00;;;3.22;;
51048;SDS011;37084;55.228;36.450;2023-03-31T15:01:51;7.05;;;3.58;;
51048;SDS011;37084;55.228;36.450;2023-03-31T15:04:52;5.80;;;3.38;;
51048;SDS011;37084;55.228;36.450;2023-03-31T15:07:56;5.72;;;3.47;;
51048;SDS011;37084;55.228;36.450;2023-03-31T15:10:59;3.95;;;3.33;;
51048;SDS011;37084;55.228;36.450;2023-03-31T15:14:03;6.13;;;3.80;;
51048;SDS011;37084;55.228;36.450;2023-03-31T15:17:04;4.82;;;3.50;;
51048;SDS011;37084;55.228;36.450;2023-03-31T15:26:36;5.50;;;4.35;;
51048;SDS011;37084;55.228;36.450;2023-03-31T15:29:40;5.10;;;4.50;;
51048;SDS011;37084;55.228;36.450;2023-03-31T15:32:44;5.82;;;4.15;;
51048;SDS011;37084;55.228;36.450;2023-03-31T15:35:45;7.55;;;4.30;;
51048;SDS011;37084;55.228;36.450;2023-03-31T15:38:46;6.55;;;4.28;;
51048;SDS011;37084;55.228;36.450;2023-03-31T15:42:02;6.68;;;4.05;;
51048;SDS011;37084;55.228;36.450;2023-03-31T15:48:31;6.22;;;4.45;;
51048;SDS011;37084;55.228;36.450;2023-03-31T15:51:38;5.78;;;4.00;;
51048;SDS011;37084;55.228;36.450;2023-03-31T15:57:43;15.02;;;7.70;;
51048;SDS011;37084;55.228;36.450;2023-03-31T16:00:46;8.70;;;4.95;;
51048;SDS011;37084;55.228;36.450;2023-03-31T16:03:52;8.02;;;4.65;;
51048;SDS011;37084;55.228;36.450;2023-03-31T16:07:07;9.82;;;4.55;;
51048;SDS011;37084;55.228;36.450;2023-03-31T16:10:18;9.75;;;5.43;;
51048;SDS011;37084;55.228;36.450;2023-03-31T16:13:22;6.43;;;4.70;;
51048;SDS011;37084;55.228;36.450;2023-03-31T16:16:24;7.60;;;4.43;;
51048;SDS011;37084;55.228;36.450;2023-03-31T16:19:27;8.60;;;4.43;;
51048;SDS011;37084;55.228;36.450;2023-03-31T16:22:42;6.38;;;4.47;;
51048;SDS011;37084;55.228;36.450;2023-03-31T16:25:46;7.22;;;4.47;;
51048;SDS011;37084;55.228;36.450;2023-03-31T16:28:51;5.15;;;3.50;;
51048;SDS011;37084;55.228;36.450;2023-03-31T16:32:05;7.80;;;4.63;;
51048;SDS011;37084;55.228;36.450;2023-03-31T16:35:12;8.55;;;3.58;;
51048;SDS011;37084;55.228;36.450;2023-03-31T16:38:14;6.13;;;4.63;;
51048;SDS011;37084;55.228;36.450;2023-03-31T16:41:18;8.90;;;4.65;;
51048;SDS011;37084;55.228;36.450;2023-03-31T16:44:21;10.35;;;5.35;;
51048;SDS011;37084;55.228;36.450;2023-03-31T16:47:22;8.27;;;4.95;;
51048;SDS011;37084;55.228;36.450;2023-03-31T16:50:24;8.88;;;5.40;;
51048;SDS011;37084;55.228;36.450;2023-03-31T16:53:26;9.50;;;5.55;;
51048;SDS011;37084;55.228;36.450;2023-03-31T16:56:29;9.75;;;5.03;;
51048;SDS011;37084;55.228;36.450;2023-03-31T16:59:31;9.15;;;5.20;;
51048;SDS011;37084;55.228;36.450;2023-03-31T17:02:32;8.82;;;5.30;;
51048;SDS011;37084;55.228;36.450;2023-03-31T17:05:40;11.35;;;5.97;;
51048;SDS011;37084;55.228;36.450;2023-03-31T17:08:42;12.73;;;6.30;;
51048;SDS011;37084;55.228;36.450;2023-03-31T17:11:43;9.85;;;5.45;;
51048;SDS011;37084;55.228;36.450;2023-03-31T17:14:45;9.95;;;5.78;;
51048;SDS011;37084;55.228;36.450;2023-03-31T17:17:46;9.77;;;5.55;;
51048;SDS011;37084;55.228;36.450;2023-03-31T17:20:47;12.73;;;6.07;;
51048;SDS011;37084;55.228;36.450;2023-03-31T17:23:49;9.95;;;6.28;;
51048;SDS011;37084;55.228;36.450;2023-03-31T17:26:50;7.82;;;4.50;;
51048;SDS011;37084;55.228;36.450;2023-03-31T17:29:51;11.35;;;4.97;;
51048;SDS011;37084;55.228;36.450;2023-03-31T17:32:52;9.88;;;4.03;;
51048;SDS011;37084;55.228;36.450;2023-03-31T17:35:54;8.80;;;5.05;;
51048;SDS011;37084;55.228;36.450;2023-03-31T17:38:57;8.32;;;5.10;;
51048;SDS011;37084;55.228;36.450;2023-03-31T17:41:59;9.20;;;5.10;;
51048;SDS011;37084;55.228;36.450;2023-03-31T17:45:00;8.82;;;5.13;;
51048;SDS011;37084;55.228;36.450;2023-03-31T17:48:01;11.07;;;6.03;;
51048;SDS011;37084;55.228;36.450;2023-03-31T17:51:05;11.23;;;5.28;;
51048;SDS011;37084;55.228;36.450;2023-03-31T17:54:07;11.05;;;5.15;;
51048;SDS011;37084;55.228;36.450;2023-03-31T17:57:10;8.95;;;5.65;;
51048;SDS011;37084;55.228;36.450;2023-03-31T18:00:11;9.75;;;5.82;;
51048;SDS011;37084;55.228;36.450;2023-03-31T18:03:14;10.50;;;4.85;;
51048;SDS011;37084;55.228;36.450;2023-03-31T18:06:18;7.80;;;5.35;;
51048;SDS011;37084;55.228;36.450;2023-03-31T18:09:20;13.95;;;6.30;;
51048;SDS011;37084;55.228;36.450;2023-03-31T18:12:21;11.48;;;5.75;;
51048;SDS011;37084;55.228;36.450;2023-03-31T18:15:23;12.85;;;7.45;;
51048;SDS011;37084;55.228;36.450;2023-03-31T18:18:24;11.73;;;6.00;;
51048;SDS011;37084;55.228;36.450;2023-03-31T18:21:27;11.23;;;6.05;;
51048;SDS011;37084;55.228;36.450;2023-03-31T18:24:28;11.05;;;5.90;;
51048;SDS011;37084;55.228;36.450;2023-03-31T18:27:33;11.25;;;5.65;;
51048;SDS011;37084;55.228;36.450;2023-03-31T18:30:35;12.10;;;7.13;;
51048;SDS011;37084;55.228;36.450;2023-03-31T18:33:37;9.80;;;6.43;;
51048;SDS011;37084;55.228;36.450;2023-03-31T18:36:39;11.00;;;5.60;;
51048;SDS011;37084;55.228;36.450;2023-03-31T18:39:40;10.65;;;6.38;;
51048;SDS011;37084;55.228;36.450;2023-03-31T18:42:42;12.43;;;6.40;;
51048;SDS011;37084;55.228;36.450;2023-03-31T18:45:47;11.70;;;6.85;;
51048;SDS011;37084;55.228;36.450;2023-03-31T18:48:49;13.20;;;6.53;;
51048;SDS011;37084;55.228;36.450;2023-03-31T18:51:50;10.18;;;6.30;;
51048;SDS011;37084;55.228;36.450;2023-03-31T18:54:53;11.43;;;6.70;;
51048;SDS011;37084;55.228;36.450;2023-03-31T18:57:54;9.70;;;6.30;;
51048;SDS011;37084;55.228;36.450;2023-03-31T19:00:56;11.10;;;6.38;;
51048;SDS011;37084;55.228;36.450;2023-03-31T19:03:58;10.75;;;6.35;;
51048;SDS011;37084;55.228;36.450;2023-03-31T19:06:59;11.07;;;6.43;;
51048;SDS011;37084;55.228;36.450;2023-03-31T19:10:00;10.57;;;6.32;;
51048;SDS011;37084;55.228;36.450;2023-03-31T19:13:02;10.88;;;6.43;;
51048;SDS011;37084;55.228;36.450;2023-03-31T19:16:03;10.82;;;6.18;;
51048;SDS011;37084;55.228;36.450;2023-03-31T19:19:05;12.32;;;6.15;;
51048;SDS011;37084;55.228;36.450;2023-03-31T19:22:07;12.75;;;6.47;;
51048;SDS011;37084;55.228;36.450;2023-03-31T19:25:09;12.65;;;5.82;;
51048;SDS011;37084;55.228;36.450;2023-03-31T19:28:14;11.85;;;6.03;;
51048;SDS011;37084;55.228;36.450;2023-03-31T19:31:15;12.00;;;6.82;;
51048;SDS011;37084;55.228;36.450;2023-03-31T19:34:16;12.27;;;6.20;;
51048;SDS011;37084;55.228;36.450;2023-03-31T19:37:18;14.02;;;7.53;;
51048;SDS011;37084;55.228;36.450;2023-03-31T19:40:19;14.23;;;8.07;;
51048;SDS011;37084;55.228;36.450;2023-03-31T19:43:21;15.93;;;9.13;;
51048;SDS011;37084;55.228;36.450;2023-03-31T19:46:23;17.10;;;7.93;;
51048;SDS011;37084;55.228;36.450;2023-03-31T19:49:24;15.20;;;9.15;;
51048;SDS011;37084;55.228;36.450;2023-03-31T19:52:27;14.75;;;8.98;;
51048;SDS011;37084;55.228;36.450;2023-03-31T19:55:29;18.08;;;9.48;;
51048;SDS011;37084;55.228;36.450;2023-03-31T19:58:31;15.70;;;8.77;;
51048;SDS011;37084;55.228;36.450;2023-03-31T20:01:35;14.45;;;7.65;;
51048;SDS011;37084;55.228;36.450;2023-03-31T20:04:36;12.13;;;7.30;;
51048;SDS011;37084;55.228;36.450;2023-03-31T20:07:38;13.27;;;7.68;;
51048;SDS011;37084;55.228;36.450;2023-03-31T20:10:39;12.80;;;6.90;;
51048;SDS011;37084;55.228;36.450;2023-03-31T20:13:41;14.32;;;8.00;;
51048;SDS011;37084;55.228;36.450;2023-03-31T20:16:43;16.33;;;8.48;;
51048;SDS011;37084;55.228;36.450;2023-03-31T20:19:44;15.70;;;6.75;;
51048;SDS011;37084;55.228;36.450;2023-03-31T20:22:46;15.52;;;7.93;;
51048;SDS011;37084;55.228;36.450;2023-03-31T20:25:47;17.10;;;8.45;;
51048;SDS011;37084;55.228;36.450;2023-03-31T20:28:48;16.65;;;8.63;;
51048;SDS011;37084;55.228;36.450;2023-03-31T20:31:49;17.23;;;8.73;;
51048;SDS011;37084;55.228;36.450;2023-03-31T20:34:51;16.98;;;8.85;;
51048;SDS011;37084;55.228;36.450;2023-03-31T20:37:52;18.92;;;8.57;;
51048;SDS011;37084;55.228;36.450;2023-03-31T20:40:53;17.58;;;7.65;;
51048;SDS011;37084;55.228;36.450;2023-03-31T20:43:55;14.48;;;7.25;;
51048;SDS011;37084;55.228;36.450;2023-03-31T20:46:56;14.65;;;7.25;;
51048;SDS011;37084;55.228;36.450;2023-03-31T20:50:00;15.77;;;7.88;;
51048;SDS011;37084;55.228;36.450;2023-03-31T20:53:03;15.20;;;7.10;;
51048;SDS011;37084;55.228;36.450;2023-03-31T20:56:05;16.23;;;8.77;;
51048;SDS011;37084;55.228;36.450;2023-03-31T20:59:07;19.95;;;9.73;;
51048;SDS011;37084;55.228;36.450;2023-03-31T21:02:11;16.95;;;8.27;;
51048;SDS011;37084;55.228;36.450;2023-03-31T21:05:12;17.63;;;8.57;;